createdAt,value
2017-04-09T00:00:10.123Z,1022.26
2017-04-09T00:01:10.171Z,1022.22
2017-04-09T00:02:10.202Z,1022.24
2017-04-09T00:03:10.227Z,1022.23
2017-04-09T00:04:10.262Z,1022.18
2017-04-09T00:05:10.294Z,1022.15
2017-04-09T00:06:10.324Z,1022.17
2017-04-09T00:07:10.355Z,1022.21
2017-04-09T00:08:10.385Z,1022.21
2017-04-09T00:09:10.414Z,1022.22
2017-04-09T00:10:10.445Z,1022.2
2017-04-09T00:11:10.477Z,1022.21
2017-04-09T00:12:10.505Z,1022.22
2017-04-09T00:13:10.535Z,1022.15
2017-04-09T00:14:10.544Z,1022.15
2017-04-09T00:15:10.593Z,1022.18
2017-04-09T00:16:10.624Z,1022.18
2017-04-09T00:17:10.657Z,1022.19
2017-04-09T00:18:10.668Z,1022.13
2017-04-09T00:19:10.717Z,1022.18
2017-04-09T00:20:10.746Z,1022.19
2017-04-09T00:21:10.777Z,1022.17
2017-04-09T00:22:10.806Z,1022.13
2017-04-09T00:23:10.835Z,1022.2
2017-04-09T00:24:10.861Z,1022.19
2017-04-09T00:25:10.898Z,1022.19
2017-04-09T00:26:10.928Z,1022.16
2017-04-09T00:27:10.956Z,1022.22
2017-04-09T00:28:10.988Z,1022.18
2017-04-09T00:29:11.017Z,1022.17
2017-04-09T00:30:11.050Z,1022.2
2017-04-09T00:31:11.075Z,1022.18
2017-04-09T00:32:11.108Z,1022.15
2017-04-09T00:33:11.143Z,1022.22
2017-04-09T00:34:11.169Z,1022.15
2017-04-09T00:35:11.197Z,1022.13
2017-04-09T00:36:11.212Z,1022.16
2017-04-09T00:37:11.261Z,1022.18
2017-04-09T00:38:11.291Z,1022.15
2017-04-09T00:39:11.306Z,1022.22
2017-04-09T00:40:11.353Z,1022.17
2017-04-09T00:41:11.362Z,1022.2
2017-04-09T00:42:11.412Z,1022.2
2017-04-09T00:43:11.439Z,1022.1
2017-04-09T00:44:11.468Z,1022.2
2017-04-09T00:45:11.506Z,1022.15
2017-04-09T00:46:11.533Z,1022.15
2017-04-09T00:47:11.565Z,1022.15
2017-04-09T00:48:11.591Z,1022.21
2017-04-09T00:49:11.627Z,1022.18
2017-04-09T00:50:11.658Z,1022.18
2017-04-09T00:51:11.686Z,1022.16
2017-04-09T00:52:11.713Z,1022.17
2017-04-09T00:53:11.746Z,1022.2
2017-04-09T00:54:11.771Z,1022.16
2017-04-09T00:55:11.804Z,1022.16
2017-04-09T00:56:11.835Z,1022.15
2017-04-09T00:57:11.866Z,1022.17
2017-04-09T00:58:11.896Z,1022.16
2017-04-09T00:59:11.923Z,1022.19
2017-04-09T01:00:11.961Z,1022.18
2017-04-09T01:01:11.997Z,1022.14
2017-04-09T01:02:12.018Z,1022.17
2017-04-09T01:03:12.048Z,1022.18
2017-04-09T01:04:12.063Z,1022.17
2017-04-09T01:05:12.110Z,1022.12
2017-04-09T01:06:12.141Z,1022.14
2017-04-09T01:07:12.171Z,1022.12
2017-04-09T01:08:12.202Z,1022.1
2017-04-09T01:09:12.218Z,1022.09
2017-04-09T01:10:12.262Z,1022.13
2017-04-09T01:11:12.294Z,1022.15
2017-04-09T01:12:12.322Z,1022.1
2017-04-09T01:13:12.355Z,1022.08
2017-04-09T01:14:12.386Z,1022.1
2017-04-09T01:15:12.413Z,1022.08
2017-04-09T01:16:12.444Z,1022.08
2017-04-09T01:17:12.476Z,1022.09
2017-04-09T01:18:12.509Z,1022.1
2017-04-09T01:19:12.532Z,1022.12
2017-04-09T01:20:12.569Z,1022.16
2017-04-09T01:21:12.595Z,1022.13
2017-04-09T01:22:12.625Z,1022.15
2017-04-09T01:23:12.660Z,1022.11
2017-04-09T01:24:12.677Z,1022.12
2017-04-09T01:25:12.716Z,1022.15
2017-04-09T01:26:12.747Z,1022.09
2017-04-09T01:27:12.778Z,1022.09
2017-04-09T01:28:12.809Z,1022.13
2017-04-09T01:29:12.837Z,1022.1
2017-04-09T01:30:12.875Z,1022.14
2017-04-09T01:31:12.891Z,1022.13
2017-04-09T01:32:12.930Z,1022.14
2017-04-09T01:33:12.961Z,1022.13
2017-04-09T01:34:12.994Z,1022.14
2017-04-09T01:35:13.027Z,1022.12
2017-04-09T01:36:13.057Z,1022.13
2017-04-09T01:37:13.089Z,1022.2
2017-04-09T01:38:13.119Z,1022.16
2017-04-09T01:39:13.144Z,1022.13
2017-04-09T01:40:13.175Z,1022.12
2017-04-09T01:41:13.207Z,1022.06
2017-04-09T01:42:13.240Z,1022.07
2017-04-09T01:43:13.266Z,1022.11
2017-04-09T01:44:13.301Z,1022.03
2017-04-09T01:45:13.331Z,1022.05
2017-04-09T01:46:13.362Z,1022.05
2017-04-09T01:47:13.395Z,1022.05
2017-04-09T01:48:13.423Z,1022.04
2017-04-09T01:49:13.455Z,1022.04
2017-04-09T01:50:13.485Z,1022.07
2017-04-09T01:51:13.496Z,1022.13
2017-04-09T01:52:13.541Z,1022.06
2017-04-09T01:53:13.575Z,1022.08
2017-04-09T01:54:13.582Z,1022.08
2017-04-09T01:55:13.638Z,1022.05
2017-04-09T01:56:13.663Z,1022.01
2017-04-09T01:57:13.700Z,1022.02
2017-04-09T01:58:13.727Z,1022.05
2017-04-09T01:59:13.762Z,1021.99
2017-04-09T02:00:13.939Z,1022.02
2017-04-09T02:01:13.827Z,1022.03
2017-04-09T02:02:13.852Z,1022.01
2017-04-09T02:03:13.870Z,1021.99
2017-04-09T02:04:13.907Z,1022.1
2017-04-09T02:05:13.942Z,1022.03
2017-04-09T02:06:13.971Z,1022.01
2017-04-09T02:07:13.998Z,1022.01
2017-04-09T02:08:14.036Z,1022.04
2017-04-09T02:09:14.069Z,1022.05
2017-04-09T02:10:14.095Z,1022.07
2017-04-09T02:11:14.124Z,1022.09
2017-04-09T02:12:14.163Z,1021.99
2017-04-09T02:13:14.190Z,1022.05
2017-04-09T02:14:14.222Z,1022.05
2017-04-09T02:15:14.251Z,1022.07
2017-04-09T02:16:14.276Z,1022.1
2017-04-09T02:17:14.289Z,1022.05
2017-04-09T02:18:14.343Z,1022.18
2017-04-09T02:19:14.368Z,1022.14
2017-04-09T02:20:14.399Z,1022.18
2017-04-09T02:21:14.435Z,1022.16
2017-04-09T02:22:14.467Z,1022.16
2017-04-09T02:23:33.351Z,1022.13
2017-04-09T02:24:33.382Z,1022.13
2017-04-09T02:25:33.396Z,1022.14
2017-04-09T02:26:33.443Z,1022.16
2017-04-09T02:27:33.470Z,1022.19
2017-04-09T02:28:33.506Z,1022.19
2017-04-09T02:29:33.538Z,1022.17
2017-04-09T02:30:33.564Z,1022.18
2017-04-09T02:31:33.598Z,1022.19
2017-04-09T02:32:33.624Z,1022.14
2017-04-09T02:33:33.656Z,1022.16
2017-04-09T02:34:33.690Z,1022.16
2017-04-09T02:35:33.720Z,1022.17
2017-04-09T02:36:33.747Z,1022.12
2017-04-09T02:37:33.779Z,1022.14
2017-04-09T02:38:33.812Z,1022.13
2017-04-09T02:39:33.838Z,1022.18
2017-04-09T02:40:33.872Z,1022.16
2017-04-09T02:41:33.900Z,1022.13
2017-04-09T02:42:33.931Z,1022.1
2017-04-09T02:43:33.964Z,1022.13
2017-04-09T02:44:34.006Z,1022.11
2017-04-09T02:45:34.021Z,1022.13
2017-04-09T02:46:34.067Z,1022.12
2017-04-09T02:47:34.088Z,1022.07
2017-04-09T02:48:34.128Z,1022.05
2017-04-09T02:49:34.155Z,1022.13
2017-04-09T02:50:34.172Z,1022.11
2017-04-09T02:51:34.205Z,1022.07
2017-04-09T02:52:34.237Z,1022.1
2017-04-09T02:53:34.266Z,1022.11
2017-04-09T02:54:34.298Z,1022.07
2017-04-09T02:55:34.327Z,1022.14
2017-04-09T02:56:34.356Z,1022.11
2017-04-09T02:57:34.390Z,1022.09
2017-04-09T02:58:34.417Z,1022.08
2017-04-09T02:59:34.451Z,1022.1
2017-04-09T03:00:34.468Z,1022.06
2017-04-09T03:01:34.495Z,1022.1
2017-04-09T03:02:34.552Z,1022.09
2017-04-09T03:03:34.572Z,1022.07
2017-04-09T03:04:34.603Z,1022.04
2017-04-09T03:05:34.638Z,1022.08
2017-04-09T03:06:34.665Z,1022.08
2017-04-09T03:07:34.696Z,1022.1
2017-04-09T03:08:34.730Z,1022.09
2017-04-09T03:09:34.754Z,1022.04
2017-04-09T03:10:34.792Z,1022.09
2017-04-09T03:11:34.819Z,1022
2017-04-09T03:12:34.853Z,1022.07
2017-04-09T03:13:34.883Z,1022.08
2017-04-09T03:14:34.889Z,1022.05
2017-04-09T03:15:34.928Z,1022.02
2017-04-09T03:16:35.070Z,1022.04
2017-04-09T03:17:34.997Z,1022.05
2017-04-09T03:18:35.036Z,1022.06
2017-04-09T03:19:35.063Z,1022.05
2017-04-09T03:20:35.083Z,1022.03
2017-04-09T03:21:35.126Z,1022.05
2017-04-09T03:22:35.156Z,1022.01
2017-04-09T03:23:35.187Z,1022.06
2017-04-09T03:24:35.217Z,1022.03
2017-04-09T03:25:35.249Z,1022.06
2017-04-09T03:26:35.278Z,1022.08
2017-04-09T03:27:35.298Z,1022.09
2017-04-09T03:28:35.340Z,1022.1
2017-04-09T03:29:35.369Z,1022.02
2017-04-09T03:30:35.400Z,1022.02
2017-04-09T03:31:35.431Z,1022.01
2017-04-09T03:32:35.464Z,1022.02
2017-04-09T03:33:35.518Z,1022.03
2017-04-09T03:34:35.519Z,1022.05
2017-04-09T03:35:35.554Z,1021.98
2017-04-09T03:36:35.585Z,1021.99
2017-04-09T03:37:35.611Z,1021.97
2017-04-09T03:38:35.645Z,1022.03
2017-04-09T03:39:35.677Z,1022.01
2017-04-09T03:40:35.704Z,1022.05
2017-04-09T03:41:35.737Z,1022.09
2017-04-09T03:42:35.765Z,1022.05
2017-04-09T03:43:35.799Z,1022.01
2017-04-09T03:44:35.831Z,1022.05
2017-04-09T03:45:35.863Z,1022.04
2017-04-09T03:46:35.876Z,1022.06
2017-04-09T03:47:35.919Z,1022.05
2017-04-09T03:48:35.948Z,1022.08
2017-04-09T03:49:35.988Z,1022.05
2017-04-09T03:50:35.996Z,1022.11
2017-04-09T03:51:36.025Z,1022.06
2017-04-09T03:52:36.073Z,1022.04
2017-04-09T03:53:36.103Z,1022.04
2017-04-09T03:54:36.133Z,1022.05
2017-04-09T03:55:36.164Z,1022
2017-04-09T03:56:36.193Z,1022.03
2017-04-09T03:57:36.227Z,1022.07
2017-04-09T03:58:36.265Z,1022.05
2017-04-09T03:59:36.286Z,1022.02
2017-04-09T04:00:36.323Z,1022.03
2017-04-09T04:01:36.347Z,1022.04
2017-04-09T04:02:36.378Z,1022.02
2017-04-09T04:03:36.388Z,1022.01
2017-04-09T04:04:36.433Z,1022.02
2017-04-09T04:05:36.469Z,1021.95
2017-04-09T04:06:36.502Z,1021.97
2017-04-09T04:07:36.530Z,1022.02
2017-04-09T04:08:36.566Z,1022.03
2017-04-09T04:09:36.593Z,1022.04
2017-04-09T04:10:36.624Z,1022.08
2017-04-09T04:11:36.656Z,1022.17
2017-04-09T04:12:36.686Z,1022.09
2017-04-09T04:13:36.712Z,1022.12
2017-04-09T04:14:36.742Z,1022.12
2017-04-09T04:15:36.777Z,1022.15
2017-04-09T04:16:36.798Z,1022.09
2017-04-09T04:17:36.831Z,1022.08
2017-04-09T04:18:36.865Z,1022.08
2017-04-09T04:19:36.898Z,1022.08
2017-04-09T04:20:36.922Z,1022.08
2017-04-09T04:21:36.954Z,1022.1
2017-04-09T04:22:36.985Z,1022.06
2017-04-09T04:23:37.021Z,1022.07
2017-04-09T04:24:37.050Z,1022.08
2017-04-09T04:25:37.073Z,1022.1
2017-04-09T04:26:37.105Z,1022.14
2017-04-09T04:27:37.145Z,1022.09
2017-04-09T04:28:37.171Z,1022.1
2017-04-09T04:29:37.199Z,1022.09
2017-04-09T04:30:37.206Z,1022.13
2017-04-09T04:31:37.259Z,1022.13
2017-04-09T04:32:37.287Z,1022.17
2017-04-09T04:33:37.319Z,1022.19
2017-04-09T04:34:37.351Z,1022.2
2017-04-09T04:35:37.383Z,1022.14
2017-04-09T04:36:37.413Z,1022.12
2017-04-09T04:37:37.442Z,1022.16
2017-04-09T04:38:37.470Z,1022.15
2017-04-09T04:39:37.503Z,1022.16
2017-04-09T04:40:37.534Z,1022.19
2017-04-09T04:41:37.560Z,1022.18
2017-04-09T04:42:37.594Z,1022.17
2017-04-09T04:43:37.617Z,1022.25
2017-04-09T04:44:37.649Z,1022.22
2017-04-09T04:45:37.682Z,1022.23
2017-04-09T04:46:37.715Z,1022.22
2017-04-09T04:47:37.751Z,1022.23
2017-04-09T04:48:37.779Z,1022.22
2017-04-09T04:49:37.826Z,1022.24
2017-04-09T04:50:37.838Z,1022.24
2017-04-09T04:51:37.868Z,1022.29
2017-04-09T04:52:37.896Z,1022.23
2017-04-09T04:53:37.928Z,1022.3
2017-04-09T04:54:37.953Z,1022.28
2017-04-09T04:55:37.994Z,1022.25
2017-04-09T04:56:38.014Z,1022.36
2017-04-09T04:57:38.051Z,1022.35
2017-04-09T04:58:38.079Z,1022.31
2017-04-09T04:59:38.115Z,1022.3
2017-04-09T05:00:38.144Z,1022.29
2017-04-09T05:01:38.172Z,1022.32
2017-04-09T05:02:38.203Z,1022.34
2017-04-09T05:03:38.234Z,1022.37
2017-04-09T05:04:38.248Z,1022.31
2017-04-09T05:05:38.296Z,1022.34
2017-04-09T05:06:38.326Z,1022.32
2017-04-09T05:07:38.358Z,1022.34
2017-04-09T05:08:38.390Z,1022.32
2017-04-09T05:09:38.423Z,1022.32
2017-04-09T05:10:38.448Z,1022.31
2017-04-09T05:11:38.479Z,1022.34
2017-04-09T05:12:38.511Z,1022.31
2017-04-09T05:13:38.540Z,1022.34
2017-04-09T05:14:38.568Z,1022.32
2017-04-09T05:15:38.600Z,1022.36
2017-04-09T05:16:38.631Z,1022.34
2017-04-09T05:17:38.658Z,1022.31
2017-04-09T05:18:38.688Z,1022.34
2017-04-09T05:19:38.724Z,1022.34
2017-04-09T05:20:38.751Z,1022.32
2017-04-09T05:21:38.789Z,1022.36
2017-04-09T05:22:38.818Z,1022.38
2017-04-09T05:23:38.847Z,1022.38
2017-04-09T05:24:38.873Z,1022.36
2017-04-09T05:25:38.910Z,1022.39
2017-04-09T05:26:38.938Z,1022.41
2017-04-09T05:27:38.969Z,1022.42
2017-04-09T05:28:38.999Z,1022.44
2017-04-09T05:29:39.034Z,1022.43
2017-04-09T05:30:39.050Z,1022.48
2017-04-09T05:31:39.076Z,1022.46
2017-04-09T05:32:39.123Z,1022.39
2017-04-09T05:33:39.135Z,1022.44
2017-04-09T05:34:39.188Z,1022.42
2017-04-09T05:35:39.219Z,1022.45
2017-04-09T05:36:39.250Z,1022.49
2017-04-09T05:37:39.278Z,1022.46
2017-04-09T05:38:39.313Z,1022.48
2017-04-09T05:39:39.344Z,1022.44
2017-04-09T05:40:39.370Z,1022.47
2017-04-09T05:41:39.388Z,1022.5
2017-04-09T05:42:39.432Z,1022.45
2017-04-09T05:43:39.459Z,1022.48
2017-04-09T05:44:39.499Z,1022.5
2017-04-09T05:45:39.528Z,1022.5
2017-04-09T05:46:39.565Z,1022.54
2017-04-09T05:47:39.591Z,1022.46
2017-04-09T05:48:39.609Z,1022.48
2017-04-09T05:49:39.655Z,1022.51
2017-04-09T05:50:39.678Z,1022.49
2017-04-09T05:51:39.712Z,1022.5
2017-04-09T05:52:39.745Z,1022.5
2017-04-09T05:53:39.754Z,1022.52
2017-04-09T05:54:39.807Z,1022.52
2017-04-09T05:55:39.838Z,1022.49
2017-04-09T05:56:39.868Z,1022.5
2017-04-09T05:57:39.896Z,1022.51
2017-04-09T05:58:39.929Z,1022.53
2017-04-09T05:59:39.967Z,1022.55
2017-04-09T06:00:39.978Z,1022.49
2017-04-09T06:01:40.034Z,1022.52
2017-04-09T06:02:40.044Z,1022.52
2017-04-09T06:03:40.067Z,1022.51
2017-04-09T06:04:40.117Z,1022.52
2017-04-09T06:05:40.147Z,1022.55
2017-04-09T06:06:40.176Z,1022.56
2017-04-09T06:07:40.200Z,1022.55
2017-04-09T06:08:40.243Z,1022.55
2017-04-09T06:09:40.269Z,1022.53
2017-04-09T06:10:40.306Z,1022.53
2017-04-09T06:11:40.336Z,1022.57
2017-04-09T06:12:40.368Z,1022.56
2017-04-09T06:13:40.395Z,1022.61
2017-04-09T06:14:40.409Z,1022.58
2017-04-09T06:15:40.460Z,1022.56
2017-04-09T06:16:40.495Z,1022.59
2017-04-09T06:17:40.525Z,1022.58
2017-04-09T06:18:40.558Z,1022.6
2017-04-09T06:19:40.590Z,1022.61
2017-04-09T06:20:40.622Z,1022.62
2017-04-09T06:21:40.654Z,1022.61
2017-04-09T06:22:40.679Z,1022.61
2017-04-09T06:23:40.700Z,1022.7
2017-04-09T06:24:40.745Z,1022.65
2017-04-09T06:25:40.776Z,1022.63
2017-04-09T06:26:40.811Z,1022.64
2017-04-09T06:27:40.844Z,1022.67
2017-04-09T06:28:40.871Z,1022.73
2017-04-09T06:29:40.907Z,1022.74
2017-04-09T06:30:40.945Z,1022.82
2017-04-09T06:31:40.953Z,1022.78
2017-04-09T06:32:41.004Z,1022.75
2017-04-09T06:33:41.016Z,1022.74
2017-04-09T06:34:41.069Z,1022.74
2017-04-09T06:35:41.099Z,1022.75
2017-04-09T06:36:41.130Z,1022.79
2017-04-09T06:37:41.166Z,1022.73
2017-04-09T06:38:41.193Z,1022.75
2017-04-09T06:39:41.227Z,1022.79
2017-04-09T06:40:41.304Z,1022.77
2017-04-09T06:41:41.291Z,1022.81
2017-04-09T06:42:41.326Z,1022.84
2017-04-09T06:43:41.359Z,1022.84
2017-04-09T06:44:41.397Z,1022.8
2017-04-09T06:45:41.425Z,1022.82
2017-04-09T06:46:41.456Z,1022.81
2017-04-09T06:47:41.490Z,1022.85
2017-04-09T06:48:41.525Z,1022.87
2017-04-09T06:49:41.555Z,1022.8
2017-04-09T06:50:41.590Z,1022.79
2017-04-09T06:51:41.620Z,1022.85
2017-04-09T06:52:41.655Z,1022.86
2017-04-09T06:53:41.689Z,1022.88
2017-04-09T06:54:41.722Z,1022.87
2017-04-09T06:55:41.761Z,1022.84
2017-04-09T06:56:41.792Z,1022.85
2017-04-09T06:57:41.827Z,1022.9
2017-04-09T06:58:41.861Z,1022.92
2017-04-09T06:59:41.891Z,1022.93
2017-04-09T07:00:41.923Z,1022.96
2017-04-09T07:01:41.957Z,1023.17
2017-04-09T07:02:41.994Z,1022.97
2017-04-09T07:03:42.026Z,1022.98
2017-04-09T07:04:42.063Z,1022.98
2017-04-09T07:05:42.093Z,1022.96
2017-04-09T07:06:42.126Z,1022.97
2017-04-09T07:07:42.165Z,1022.97
2017-04-09T07:08:42.197Z,1023.01
2017-04-09T07:09:42.226Z,1023.04
2017-04-09T07:10:42.266Z,1023.05
2017-04-09T07:11:42.299Z,1023.06
2017-04-09T07:12:42.331Z,1023.07
2017-04-09T07:13:42.372Z,1023.07
2017-04-09T07:14:42.404Z,1023.05
2017-04-09T07:15:42.434Z,1023.06
2017-04-09T07:16:42.471Z,1023.14
2017-04-09T07:17:42.506Z,1023.12
2017-04-09T07:18:42.544Z,1023.11
2017-04-09T07:19:42.579Z,1023.14
2017-04-09T07:20:42.606Z,1023.13
2017-04-09T07:21:42.643Z,1023.14
2017-04-09T07:22:42.684Z,1023.18
2017-04-09T07:23:42.718Z,1023.11
2017-04-09T07:24:42.726Z,1023.14
2017-04-09T07:25:42.785Z,1023.16
2017-04-09T07:26:42.819Z,1023.12
2017-04-09T07:27:42.852Z,1023.13
2017-04-09T07:28:42.892Z,1023.15
2017-04-09T07:29:42.927Z,1023.17
2017-04-09T07:30:42.962Z,1023.17
2017-04-09T07:31:42.972Z,1023.17
2017-04-09T07:32:43.036Z,1023.17
2017-04-09T07:33:43.041Z,1023.18
2017-04-09T07:34:43.095Z,1023.19
2017-04-09T07:35:43.133Z,1023.19
2017-04-09T07:36:43.171Z,1023.14
2017-04-09T07:37:43.190Z,1023.17
2017-04-09T07:38:43.241Z,1023.19
2017-04-09T07:39:43.276Z,1023.15
2017-04-09T07:40:43.344Z,1023.11
2017-04-09T07:41:43.348Z,1023.13
2017-04-09T07:42:43.385Z,1023.15
2017-04-09T07:43:43.422Z,1023.35
2017-04-09T07:44:43.459Z,1023.48
2017-04-09T07:45:43.486Z,1023.43
2017-04-09T07:46:43.513Z,1023.39
2017-04-09T07:47:43.563Z,1023.44
2017-04-09T07:48:43.596Z,1023.35
2017-04-09T07:49:43.636Z,1023.33
2017-04-09T07:50:44.058Z,1023.33
2017-04-09T07:51:43.708Z,1023.34
2017-04-09T07:52:43.749Z,1023.26
2017-04-09T07:53:43.787Z,1023.37
2017-04-09T07:54:43.823Z,1023.3
2017-04-09T07:55:43.860Z,1023.26
2017-04-09T07:56:43.899Z,1023.3
2017-04-09T07:57:43.943Z,1023.23
2017-04-09T07:58:43.989Z,1023.23
2017-04-09T07:59:44.021Z,1023.25
2017-04-09T08:00:44.060Z,1023.27
2017-04-09T08:01:44.097Z,1023.22
2017-04-09T08:02:44.137Z,1023.24
2017-04-09T08:03:44.194Z,1023.21
2017-04-09T08:04:44.219Z,1023.22
2017-04-09T08:05:44.260Z,1023.24
2017-04-09T08:06:44.300Z,1023.24
2017-04-09T08:07:44.345Z,1023.25
2017-04-09T08:08:44.384Z,1023.25
2017-04-09T08:09:44.424Z,1023.21
2017-04-09T08:10:44.520Z,1023.19
2017-04-09T08:11:44.495Z,1023.22
2017-04-09T08:12:44.548Z,1023.18
2017-04-09T08:13:44.593Z,1023.24
2017-04-09T08:14:44.634Z,1023.22
2017-04-09T08:15:44.672Z,1023.24
2017-04-09T08:16:44.697Z,1023.18
2017-04-09T08:17:44.745Z,1023.28
2017-04-09T08:18:44.808Z,1023.25
2017-04-09T08:19:44.846Z,1023.29
2017-04-09T08:20:44.891Z,1023.32
2017-04-09T08:21:44.925Z,1023.3
2017-04-09T08:22:44.974Z,1023.3
2017-04-09T08:23:45.014Z,1023.31
2017-04-09T08:24:45.062Z,1023.33
2017-04-09T08:25:45.100Z,1023.31
2017-04-09T08:26:45.147Z,1023.36
2017-04-09T08:27:45.187Z,1023.44
2017-04-09T08:28:45.380Z,1023.39
2017-04-09T08:29:45.277Z,1023.44
2017-04-09T08:30:45.301Z,1023.4
2017-04-09T08:31:45.360Z,1023.43
2017-04-09T08:32:45.407Z,1023.38
2017-04-09T08:33:45.460Z,1023.45
2017-04-09T08:34:45.500Z,1023.41
2017-04-09T08:35:45.524Z,1023.4
2017-04-09T08:36:45.582Z,1023.29
2017-04-09T08:37:45.632Z,1023.28
2017-04-09T08:38:45.673Z,1023.35
2017-04-09T08:39:45.733Z,1023.4
2017-04-09T08:40:45.757Z,1023.24
2017-04-09T08:41:45.806Z,1023.39
2017-04-09T08:42:45.855Z,1023.23
2017-04-09T08:43:45.895Z,1023.47
2017-04-09T08:44:45.939Z,1023.24
2017-04-09T08:45:45.984Z,1023.43
2017-04-09T08:46:46.025Z,1023.41
2017-04-09T08:47:46.067Z,1023.39
2017-04-09T08:48:46.111Z,1023.4
2017-04-09T08:49:46.158Z,1023.45
2017-04-09T08:50:46.204Z,1023.21
2017-04-09T08:51:46.246Z,1023.54
2017-04-09T08:52:46.290Z,1023.47
2017-04-09T08:53:46.333Z,1023.46
2017-04-09T08:54:46.382Z,1023.6
2017-04-09T08:55:46.408Z,1023.62
2017-04-09T08:56:46.467Z,1023.58
2017-04-09T08:57:46.511Z,1023.6
2017-04-09T08:58:46.555Z,1023.63
2017-04-09T08:59:46.601Z,1023.59
2017-04-09T09:00:46.667Z,1023.58
2017-04-09T09:01:46.679Z,1023.59
2017-04-09T09:02:46.739Z,1023.45
2017-04-09T09:03:46.783Z,1023.27
2017-04-09T09:04:46.817Z,1023.32
2017-04-09T09:05:46.860Z,1023.6
2017-04-09T09:06:46.915Z,1023.54
2017-04-09T09:07:46.965Z,1023.52
2017-04-09T09:08:47.019Z,1023.58
2017-04-09T09:09:47.054Z,1023.58
2017-04-09T09:10:47.104Z,1023.64
2017-04-09T09:11:47.146Z,1023.38
2017-04-09T09:12:47.189Z,1023.58
2017-04-09T09:13:47.237Z,1023.39
2017-04-09T09:14:47.283Z,1023.44
2017-04-09T09:15:47.309Z,1023.54
2017-04-09T09:16:47.372Z,1023.62
2017-04-09T09:17:47.397Z,1023.66
2017-04-09T09:18:47.463Z,1023.68
2017-04-09T09:19:47.512Z,1023.34
2017-04-09T09:20:47.553Z,1023.68
2017-04-09T09:21:47.602Z,1023.38
2017-04-09T09:22:47.646Z,1023.51
2017-04-09T09:23:47.692Z,1023.69
2017-04-09T09:24:47.737Z,1023.66
2017-04-09T09:25:47.780Z,1023.71
2017-04-09T09:26:47.813Z,1023.63
2017-04-09T09:27:47.885Z,1023.72
2017-04-09T09:28:47.918Z,1023.83
2017-04-09T09:29:47.965Z,1023.76
2017-04-09T09:30:48.013Z,1023.66
2017-04-09T09:31:48.056Z,1023.72
2017-04-09T09:32:48.109Z,1023.87
2017-04-09T09:33:48.148Z,1023.66
2017-04-09T09:34:48.193Z,1023.4
2017-04-09T09:35:48.241Z,1023.22
2017-04-09T09:36:48.289Z,1023.16
2017-04-09T09:37:48.335Z,1023.23
2017-04-09T09:38:48.377Z,1023.12
2017-04-09T09:39:48.416Z,1023.32
2017-04-09T09:40:48.469Z,1023.35
2017-04-09T09:41:48.514Z,1023.89
2017-04-09T09:42:48.558Z,1024.02
2017-04-09T09:43:48.614Z,1024.02
2017-04-09T09:44:48.649Z,1023.95
2017-04-09T09:45:48.689Z,1023.21
2017-04-09T09:46:48.735Z,1023.67
2017-04-09T09:47:48.784Z,1023.96
2017-04-09T09:48:48.838Z,1023.89
2017-04-09T09:49:48.866Z,1023.94
2017-04-09T09:50:48.909Z,1023.93
2017-04-09T09:51:48.984Z,1023.96
2017-04-09T09:52:49.000Z,1023.88
2017-04-09T09:53:49.048Z,1023.87
2017-04-09T09:54:49.093Z,1023.89
2017-04-09T09:55:49.121Z,1023.89
2017-04-09T09:56:49.183Z,1023.92
2017-04-09T09:57:49.224Z,1023.92
2017-04-09T09:58:49.274Z,1023.94
2017-04-09T09:59:49.321Z,1023.92
2017-04-09T10:00:49.366Z,1023.97
2017-04-09T10:01:49.409Z,1023.99
2017-04-09T10:02:49.456Z,1023.96
2017-04-09T10:03:49.500Z,1024.02
2017-04-09T10:04:49.548Z,1024.03
2017-04-09T10:05:49.597Z,1024.09
2017-04-09T10:06:49.642Z,1024.04
2017-04-09T10:07:49.685Z,1024.07
2017-04-09T10:08:49.726Z,1024.06
2017-04-09T10:09:49.774Z,1024.09
2017-04-09T10:10:49.826Z,1024.13
2017-04-09T10:11:49.873Z,1024.16
2017-04-09T10:12:49.916Z,1024.19
2017-04-09T10:13:49.959Z,1024.21
2017-04-09T10:14:50.005Z,1024.3
2017-04-09T10:15:50.047Z,1024.28
2017-04-09T10:16:50.092Z,1024.21
2017-04-09T10:17:50.168Z,1024.28
2017-04-09T10:18:50.173Z,1024.3
2017-04-09T10:19:50.220Z,1024.22
2017-04-09T10:20:50.271Z,1024.31
2017-04-09T10:21:50.319Z,1024.52
2017-04-09T10:22:50.363Z,1024.57
2017-04-09T10:23:50.410Z,1024.6
2017-04-09T10:24:50.445Z,1024.67
2017-04-09T10:25:50.492Z,1024.71
2017-04-09T10:26:50.535Z,1024.68
2017-04-09T10:27:50.557Z,1024.74
2017-04-09T10:28:50.623Z,1024.86
2017-04-09T10:29:50.664Z,1024.95
2017-04-09T10:30:50.712Z,1024.98
2017-04-09T10:31:50.755Z,1024.97
2017-04-09T10:32:50.799Z,1025.05
2017-04-09T10:33:50.841Z,1025.02
2017-04-09T10:34:50.883Z,1025.14
2017-04-09T10:35:50.922Z,1024.97
2017-04-09T10:36:50.970Z,1025.22
2017-04-09T10:37:51.014Z,1025.41
2017-04-09T10:38:51.036Z,1025.34
2017-04-09T10:39:51.094Z,1025.7
2017-04-09T10:40:51.142Z,1025.84
2017-04-09T10:41:51.180Z,1025.8
2017-04-09T10:42:51.223Z,1026.02
2017-04-09T10:43:51.265Z,1026.4
2017-04-09T10:44:51.303Z,1026.62
2017-04-09T10:45:51.337Z,1026.82
2017-04-09T10:46:51.389Z,1027.1
2017-04-09T10:47:51.430Z,1027.11
2017-04-09T10:48:51.474Z,1026.84
2017-04-09T10:49:51.519Z,1027.16
2017-04-09T10:50:51.553Z,1027.68
2017-04-09T10:51:51.596Z,1027.77
2017-04-09T10:52:51.637Z,1027.24
2017-04-09T10:53:51.669Z,1027.44
2017-04-09T10:54:51.724Z,1027.64
2017-04-09T10:55:51.758Z,1026.48
2017-04-09T10:56:51.802Z,1023.65
2017-04-09T10:57:51.835Z,1022.83
2017-04-09T10:58:51.898Z,1022.8
2017-04-09T10:59:51.922Z,1022.8
2017-04-09T11:00:51.954Z,1022.77
2017-04-09T11:01:52.002Z,1022.7
2017-04-09T11:02:52.039Z,1022.68
2017-04-09T11:03:52.106Z,1022.66
2017-04-09T11:04:52.125Z,1022.63
2017-04-09T11:05:52.163Z,1022.57
2017-04-09T11:06:52.206Z,1022.59
2017-04-09T11:07:52.230Z,1022.51
2017-04-09T11:08:52.286Z,1022.55
2017-04-09T11:09:52.326Z,1022.6
2017-04-09T11:10:52.363Z,1022.59
2017-04-09T11:11:52.401Z,1022.53
2017-04-09T11:12:52.440Z,1022.47
2017-04-09T11:13:52.483Z,1022.53
2017-04-09T11:14:52.522Z,1022.55
2017-04-09T11:15:52.561Z,1022.53
2017-04-09T11:16:52.603Z,1022.48
2017-04-09T11:17:52.629Z,1022.46
2017-04-09T11:18:52.700Z,1022.48
2017-04-09T11:19:52.718Z,1022.46
2017-04-09T11:20:52.759Z,1022.44
2017-04-09T11:21:52.822Z,1022.46
2017-04-09T11:22:52.818Z,1022.49
2017-04-09T11:23:52.876Z,1022.46
2017-04-09T11:24:52.921Z,1022.46
2017-04-09T11:25:52.957Z,1022.44
2017-04-09T11:26:52.995Z,1022.47
2017-04-09T11:27:53.013Z,1022.47
2017-04-09T11:28:53.058Z,1022.41
2017-04-09T11:29:53.112Z,1022.46
2017-04-09T11:30:53.149Z,1022.42
2017-04-09T11:31:53.188Z,1022.36
2017-04-09T11:32:53.227Z,1022.35
2017-04-09T11:33:53.268Z,1022.36
2017-04-09T11:34:53.305Z,1022.3
2017-04-09T11:35:53.351Z,1022.3
2017-04-09T11:36:53.384Z,1022.3
2017-04-09T11:37:53.421Z,1022.27
2017-04-09T11:38:53.465Z,1022.3
2017-04-09T11:39:53.502Z,1022.27
2017-04-09T11:40:53.531Z,1022.31
2017-04-09T11:41:53.579Z,1022.29
2017-04-09T11:42:53.619Z,1022.3
2017-04-09T11:43:53.656Z,1022.27
2017-04-09T11:44:53.692Z,1022.19
2017-04-09T11:45:53.731Z,1022.18
2017-04-09T11:46:53.754Z,1022.18
2017-04-09T11:47:53.811Z,1022.15
2017-04-09T11:48:53.851Z,1022.19
2017-04-09T11:49:53.888Z,1022.13
2017-04-09T11:50:53.925Z,1022.12
2017-04-09T11:51:53.962Z,1022.17
2017-04-09T11:52:53.996Z,1022.12
2017-04-09T11:53:54.026Z,1022.15
2017-04-09T11:54:54.075Z,1022.13
2017-04-09T11:55:54.117Z,1022.13
2017-04-09T11:56:54.149Z,1022.06
2017-04-09T11:57:54.190Z,1022.08
2017-04-09T11:58:54.228Z,1022.1
2017-04-09T11:59:54.265Z,1022.08
2017-04-09T12:00:54.301Z,1022.08
2017-04-09T12:01:54.321Z,1022.07
2017-04-09T12:02:54.378Z,1022.07
2017-04-09T12:03:54.415Z,1022.1
2017-04-09T12:04:54.449Z,1022.09
2017-04-09T12:05:54.495Z,1022.06
2017-04-09T12:06:54.511Z,1022
2017-04-09T12:07:54.556Z,1021.99
2017-04-09T12:08:54.603Z,1021.97